sensor_id;sensor_type;location;lat;lon;timestamp;P1;durP1;ratioP1;P2;durP2;ratioP2
27491;SDS011;14927;51.210;6.838;2023-11-19T00:01:16;2.83;;;2.00;;
27491;SDS011;14927;51.210;6.838;2023-11-19T00:04:01;3.08;;;1.83;;
27491;SDS011;14927;51.210;6.838;2023-11-19T00:06:48;3.17;;;1.55;;
27491;SDS011;14927;51.210;6.838;2023-11-19T00:09:36;2.63;;;1.90;;
27491;SDS011;14927;51.210;6.838;2023-11-19T00:12:21;3.40;;;2.10;;
27491;SDS011;14927;51.210;6.838;2023-11-19T00:15:06;3.60;;;1.85;;
27491;SDS011;14927;51.210;6.838;2023-11-19T00:17:55;3.40;;;1.60;;
27491;SDS011;14927;51.210;6.838;2023-11-19T00:20:42;4.50;;;2.00;;
27491;SDS011;14927;51.210;6.838;2023-11-19T00:23:28;2.22;;;1.50;;
27491;SDS011;14927;51.210;6.838;2023-11-19T00:26:12;3.28;;;1.70;;
27491;SDS011;14927;51.210;6.838;2023-11-19T00:28:58;1.63;;;1.48;;
27491;SDS011;14927;51.210;6.838;2023-11-19T00:31:43;6.13;;;1.70;;
27491;SDS011;14927;51.210;6.838;2023-11-19T00:34:27;6.30;;;1.65;;
27491;SDS011;14927;51.210;6.838;2023-11-19T00:37:12;3.60;;;1.80;;
27491;SDS011;14927;51.210;6.838;2023-11-19T00:39:57;4.85;;;1.95;;
27491;SDS011;14927;51.210;6.838;2023-11-19T00:42:42;3.03;;;2.10;;
27491;SDS011;14927;51.210;6.838;2023-11-19T00:45:26;2.72;;;1.60;;
27491;SDS011;14927;51.210;6.838;2023-11-19T00:48:11;3.22;;;2.08;;
27491;SDS011;14927;51.210;6.838;2023-11-19T00:50:56;4.03;;;2.25;;
27491;SDS011;14927;51.210;6.838;2023-11-19T00:53:41;2.63;;;1.88;;
27491;SDS011;14927;51.210;6.838;2023-11-19T00:56:26;3.58;;;1.92;;
27491;SDS011;14927;51.210;6.838;2023-11-19T00:59:12;2.70;;;2.05;;
27491;SDS011;14927;51.210;6.838;2023-11-19T01:01:58;5.95;;;2.13;;
27491;SDS011;14927;51.210;6.838;2023-11-19T01:04:47;3.75;;;2.30;;
27491;SDS011;14927;51.210;6.838;2023-11-19T01:07:31;4.20;;;1.60;;
27491;SDS011;14927;51.210;6.838;2023-11-19T01:10:16;1.67;;;1.20;;
27491;SDS011;14927;51.210;6.838;2023-11-19T01:13:04;1.27;;;0.90;;
27491;SDS011;14927;51.210;6.838;2023-11-19T01:15:49;1.65;;;0.77;;
27491;SDS011;14927;51.210;6.838;2023-11-19T01:18:34;0.95;;;0.40;;
27491;SDS011;14927;51.210;6.838;2023-11-19T01:21:20;3.67;;;0.52;;
27491;SDS011;14927;51.210;6.838;2023-11-19T01:24:06;1.33;;;0.52;;
27491;SDS011;14927;51.210;6.838;2023-11-19T01:26:53;1.30;;;0.63;;
27491;SDS011;14927;51.210;6.838;2023-11-19T01:29:38;1.23;;;0.30;;
27491;SDS011;14927;51.210;6.838;2023-11-19T01:32:23;2.42;;;0.40;;
27491;SDS011;14927;51.210;6.838;2023-11-19T01:35:07;0.93;;;0.28;;
27491;SDS011;14927;51.210;6.838;2023-11-19T01:37:52;0.35;;;0.28;;
27491;SDS011;14927;51.210;6.838;2023-11-19T01:40:37;2.85;;;0.40;;
27491;SDS011;14927;51.210;6.838;2023-11-19T01:43:37;0.32;;;0.25;;
27491;SDS011;14927;51.210;6.838;2023-11-19T01:46:26;0.77;;;0.40;;
27491;SDS011;14927;51.210;6.838;2023-11-19T01:49:11;2.33;;;0.40;;
27491;SDS011;14927;51.210;6.838;2023-11-19T01:51:58;2.28;;;0.50;;
27491;SDS011;14927;51.210;6.838;2023-11-19T01:54:43;2.15;;;0.50;;
27491;SDS011;14927;51.210;6.838;2023-11-19T01:57:32;1.38;;;0.47;;
27491;SDS011;14927;51.210;6.838;2023-11-19T02:00:16;4.32;;;0.85;;
27491;SDS011;14927;51.210;6.838;2023-11-19T02:03:02;1.73;;;0.40;;
27491;SDS011;14927;51.210;6.838;2023-11-19T02:05:48;1.58;;;0.40;;
27491;SDS011;14927;51.210;6.838;2023-11-19T02:08:36;2.50;;;0.50;;
27491;SDS011;14927;51.210;6.838;2023-11-19T02:11:22;4.05;;;0.60;;
27491;SDS011;14927;51.210;6.838;2023-11-19T02:14:07;1.33;;;0.60;;
27491;SDS011;14927;51.210;6.838;2023-11-19T02:16:52;2.70;;;0.80;;
27491;SDS011;14927;51.210;6.838;2023-11-19T02:19:37;4.30;;;0.80;;
27491;SDS011;14927;51.210;6.838;2023-11-19T02:22:21;2.92;;;0.70;;
27491;SDS011;14927;51.210;6.838;2023-11-19T02:25:07;3.35;;;1.00;;
27491;SDS011;14927;51.210;6.838;2023-11-19T02:28:01;5.38;;;0.98;;
27491;SDS011;14927;51.210;6.838;2023-11-19T02:30:48;4.13;;;1.15;;
27491;SDS011;14927;51.210;6.838;2023-11-19T02:33:32;5.97;;;1.30;;
27491;SDS011;14927;51.210;6.838;2023-11-19T02:36:20;7.93;;;1.58;;
27491;SDS011;14927;51.210;6.838;2023-11-19T02:39:05;13.77;;;1.80;;
27491;SDS011;14927;51.210;6.838;2023-11-19T02:41:54;5.35;;;1.35;;
27491;SDS011;14927;51.210;6.838;2023-11-19T02:44:38;5.63;;;1.40;;
27491;SDS011;14927;51.210;6.838;2023-11-19T02:47:23;7.15;;;1.52;;
27491;SDS011;14927;51.210;6.838;2023-11-19T02:50:11;8.60;;;1.95;;
27491;SDS011;14927;51.210;6.838;2023-11-19T02:52:59;6.10;;;0.80;;
27491;SDS011;14927;51.210;6.838;2023-11-19T02:55:44;6.43;;;1.63;;
27491;SDS011;14927;51.210;6.838;2023-11-19T02:58:32;7.07;;;1.10;;
27491;SDS011;14927;51.210;6.838;2023-11-19T03:01:24;6.68;;;1.35;;
27491;SDS011;14927;51.210;6.838;2023-11-19T03:04:19;10.40;;;2.00;;
27491;SDS011;14927;51.210;6.838;2023-11-19T03:07:04;10.18;;;1.90;;
27491;SDS011;14927;51.210;6.838;2023-11-19T03:09:50;7.18;;;1.60;;
27491;SDS011;14927;51.210;6.838;2023-11-19T03:12:35;8.77;;;1.95;;
27491;SDS011;14927;51.210;6.838;2023-11-19T03:15:19;8.80;;;2.03;;
27491;SDS011;14927;51.210;6.838;2023-11-19T03:18:04;12.00;;;2.47;;
27491;SDS011;14927;51.210;6.838;2023-11-19T03:20:49;9.05;;;2.00;;
27491;SDS011;14927;51.210;6.838;2023-11-19T03:23:34;13.05;;;2.08;;
27491;SDS011;14927;51.210;6.838;2023-11-19T03:26:19;12.63;;;2.22;;
27491;SDS011;14927;51.210;6.838;2023-11-19T03:29:03;10.85;;;2.00;;
27491;SDS011;14927;51.210;6.838;2023-11-19T03:31:48;11.57;;;2.35;;
27491;SDS011;14927;51.210;6.838;2023-11-19T03:34:33;14.27;;;2.28;;
27491;SDS011;14927;51.210;6.838;2023-11-19T03:37:18;12.90;;;2.30;;
27491;SDS011;14927;51.210;6.838;2023-11-19T03:40:03;9.65;;;1.92;;
27491;SDS011;14927;51.210;6.838;2023-11-19T03:42:48;16.20;;;2.30;;
27491;SDS011;14927;51.210;6.838;2023-11-19T03:45:33;13.95;;;2.08;;
27491;SDS011;14927;51.210;6.838;2023-11-19T03:48:19;13.15;;;2.75;;
27491;SDS011;14927;51.210;6.838;2023-11-19T03:51:04;14.88;;;2.40;;
27491;SDS011;14927;51.210;6.838;2023-11-19T03:53:49;12.10;;;2.17;;
27491;SDS011;14927;51.210;6.838;2023-11-19T03:56:33;18.02;;;2.22;;
27491;SDS011;14927;51.210;6.838;2023-11-19T03:59:18;9.20;;;2.35;;
27491;SDS011;14927;51.210;6.838;2023-11-19T04:02:04;15.82;;;2.50;;
27491;SDS011;14927;51.210;6.838;2023-11-19T04:04:50;16.60;;;2.65;;
27491;SDS011;14927;51.210;6.838;2023-11-19T04:07:34;16.13;;;2.70;;
27491;SDS011;14927;51.210;6.838;2023-11-19T04:10:19;18.83;;;3.10;;
27491;SDS011;14927;51.210;6.838;2023-11-19T04:13:05;15.68;;;2.33;;
27491;SDS011;14927;51.210;6.838;2023-11-19T04:15:50;15.07;;;2.55;;
27491;SDS011;14927;51.210;6.838;2023-11-19T04:18:35;9.77;;;2.40;;
27491;SDS011;14927;51.210;6.838;2023-11-19T04:21:21;13.82;;;2.95;;
27491;SDS011;14927;51.210;6.838;2023-11-19T04:24:07;13.57;;;2.63;;
27491;SDS011;14927;51.210;6.838;2023-11-19T04:26:55;15.25;;;3.08;;
27491;SDS011;14927;51.210;6.838;2023-11-19T04:29:40;16.65;;;3.28;;
27491;SDS011;14927;51.210;6.838;2023-11-19T04:32:25;18.42;;;3.05;;
27491;SDS011;14927;51.210;6.838;2023-11-19T04:35:10;12.88;;;2.33;;
27491;SDS011;14927;51.210;6.838;2023-11-19T04:37:55;12.38;;;2.78;;
27491;SDS011;14927;51.210;6.838;2023-11-19T04:40:41;12.02;;;2.58;;
27491;SDS011;14927;51.210;6.838;2023-11-19T04:43:28;20.02;;;3.22;;
27491;SDS011;14927;51.210;6.838;2023-11-19T04:46:12;16.38;;;2.72;;
27491;SDS011;14927;51.210;6.838;2023-11-19T04:48:57;15.57;;;2.83;;
27491;SDS011;14927;51.210;6.838;2023-11-19T04:51:48;15.45;;;3.28;;
27491;SDS011;14927;51.210;6.838;2023-11-19T04:55:08;15.23;;;3.28;;
27491;SDS011;14927;51.210;6.838;2023-11-19T04:57:55;17.88;;;3.47;;
27491;SDS011;14927;51.210;6.838;2023-11-19T05:00:39;16.77;;;2.65;;
27491;SDS011;14927;51.210;6.838;2023-11-19T05:03:24;16.00;;;3.15;;
27491;SDS011;14927;51.210;6.838;2023-11-19T05:06:08;16.70;;;3.70;;
27491;SDS011;14927;51.210;6.838;2023-11-19T05:08:53;16.23;;;3.50;;
27491;SDS011;14927;51.210;6.838;2023-11-19T05:11:38;16.98;;;3.80;;
27491;SDS011;14927;51.210;6.838;2023-11-19T05:14:24;15.68;;;2.47;;
27491;SDS011;14927;51.210;6.838;2023-11-19T05:17:08;16.17;;;3.63;;
27491;SDS011;14927;51.210;6.838;2023-11-19T05:19:53;16.67;;;3.95;;
27491;SDS011;14927;51.210;6.838;2023-11-19T05:22:39;18.00;;;3.25;;
27491;SDS011;14927;51.210;6.838;2023-11-19T05:25:25;19.77;;;3.50;;
27491;SDS011;14927;51.210;6.838;2023-11-19T05:28:11;23.48;;;4.10;;
27491;SDS011;14927;51.210;6.838;2023-11-19T05:30:58;17.15;;;3.13;;
27491;SDS011;14927;51.210;6.838;2023-11-19T05:33:42;23.95;;;3.58;;
27491;SDS011;14927;51.210;6.838;2023-11-19T05:36:27;18.63;;;3.22;;
27491;SDS011;14927;51.210;6.838;2023-11-19T05:39:12;24.50;;;3.50;;
27491;SDS011;14927;51.210;6.838;2023-11-19T05:41:57;17.88;;;3.38;;
27491;SDS011;14927;51.210;6.838;2023-11-19T05:44:41;16.50;;;3.45;;
27491;SDS011;14927;51.210;6.838;2023-11-19T05:47:26;14.52;;;2.63;;
27491;SDS011;14927;51.210;6.838;2023-11-19T05:50:11;18.30;;;3.92;;
27491;SDS011;14927;51.210;6.838;2023-11-19T05:52:55;20.48;;;3.65;;
27491;SDS011;14927;51.210;6.838;2023-11-19T05:55:40;17.38;;;3.08;;
27491;SDS011;14927;51.210;6.838;2023-11-19T05:58:39;21.70;;;2.83;;
27491;SDS011;14927;51.210;6.838;2023-11-19T06:01:24;18.35;;;3.15;;
27491;SDS011;14927;51.210;6.838;2023-11-19T06:04:10;21.55;;;3.55;;
27491;SDS011;14927;51.210;6.838;2023-11-19T06:06:58;14.98;;;2.90;;
27491;SDS011;14927;51.210;6.838;2023-11-19T06:09:42;25.83;;;4.75;;
27491;SDS011;14927;51.210;6.838;2023-11-19T06:12:27;17.75;;;3.20;;
27491;SDS011;14927;51.210;6.838;2023-11-19T06:15:11;18.63;;;3.70;;
27491;SDS011;14927;51.210;6.838;2023-11-19T06:17:57;24.75;;;3.70;;
27491;SDS011;14927;51.210;6.838;2023-11-19T06:20:43;19.75;;;4.00;;
27491;SDS011;14927;51.210;6.838;2023-11-19T06:23:27;30.98;;;4.97;;
27491;SDS011;14927;51.210;6.838;2023-11-19T06:26:12;25.05;;;3.95;;
27491;SDS011;14927;51.210;6.838;2023-11-19T06:28:57;29.85;;;4.75;;
27491;SDS011;14927;51.210;6.838;2023-11-19T06:31:42;20.63;;;3.85;;
27491;SDS011;14927;51.210;6.838;2023-11-19T06:34:26;15.40;;;3.25;;
27491;SDS011;14927;51.210;6.838;2023-11-19T06:37:11;20.92;;;4.75;;
27491;SDS011;14927;51.210;6.838;2023-11-19T06:39:56;26.40;;;4.50;;
27491;SDS011;14927;51.210;6.838;2023-11-19T06:42:41;26.58;;;4.40;;
27491;SDS011;14927;51.210;6.838;2023-11-19T06:45:25;25.77;;;4.25;;
27491;SDS011;14927;51.210;6.838;2023-11-19T06:48:09;21.98;;;4.20;;
27491;SDS011;14927;51.210;6.838;2023-11-19T06:50:55;21.80;;;4.07;;
27491;SDS011;14927;51.210;6.838;2023-11-19T06:53:39;21.92;;;4.32;;
27491;SDS011;14927;51.210;6.838;2023-11-19T06:56:24;22.83;;;3.55;;
27491;SDS011;14927;51.210;6.838;2023-11-19T06:59:09;24.38;;;4.68;;
27491;SDS011;14927;51.210;6.838;2023-11-19T07:01:53;25.73;;;4.55;;
27491;SDS011;14927;51.210;6.838;2023-11-19T07:04:39;22.02;;;4.15;;
27491;SDS011;14927;51.210;6.838;2023-11-19T07:07:24;27.98;;;4.53;;
27491;SDS011;14927;51.210;6.838;2023-11-19T07:10:08;27.13;;;4.82;;
27491;SDS011;14927;51.210;6.838;2023-11-19T07:12:53;20.55;;;4.07;;
27491;SDS011;14927;51.210;6.838;2023-11-19T07:15:38;22.67;;;4.95;;
27491;SDS011;14927;51.210;6.838;2023-11-19T07:18:25;23.65;;;4.47;;
27491;SDS011;14927;51.210;6.838;2023-11-19T07:21:13;21.73;;;4.28;;
27491;SDS011;14927;51.210;6.838;2023-11-19T07:23:59;25.23;;;4.20;;
27491;SDS011;14927;51.210;6.838;2023-11-19T07:26:44;24.83;;;4.45;;
27491;SDS011;14927;51.210;6.838;2023-11-19T07:29:30;22.05;;;3.78;;
27491;SDS011;14927;51.210;6.838;2023-11-19T07:32:15;24.20;;;4.90;;
27491;SDS011;14927;51.210;6.838;2023-11-19T07:35:00;24.98;;;3.85;;
27491;SDS011;14927;51.210;6.838;2023-11-19T07:37:44;24.60;;;4.50;;
27491;SDS011;14927;51.210;6.838;2023-11-19T07:40:31;30.88;;;5.03;;
27491;SDS011;14927;51.210;6.838;2023-11-19T07:43:15;28.20;;;4.82;;
27491;SDS011;14927;51.210;6.838;2023-11-19T07:46:00;31.10;;;4.70;;
27491;SDS011;14927;51.210;6.838;2023-11-19T07:48:45;21.55;;;4.53;;
27491;SDS011;14927;51.210;6.838;2023-11-19T07:51:32;22.02;;;4.75;;
27491;SDS011;14927;51.210;6.838;2023-11-19T07:54:17;26.35;;;5.00;;
27491;SDS011;14927;51.210;6.838;2023-11-19T07:57:02;27.90;;;4.70;;
27491;SDS011;14927;51.210;6.838;2023-11-19T07:59:49;26.02;;;5.15;;
27491;SDS011;14927;51.210;6.838;2023-11-19T08:02:34;25.38;;;5.30;;
27491;SDS011;14927;51.210;6.838;2023-11-19T08:05:19;25.52;;;4.18;;
27491;SDS011;14927;51.210;6.838;2023-11-19T08:08:03;22.73;;;4.13;;
27491;SDS011;14927;51.210;6.838;2023-11-19T08:10:48;22.27;;;4.38;;
27491;SDS011;14927;51.210;6.838;2023-11-19T08:13:35;25.42;;;4.50;;
27491;SDS011;14927;51.210;6.838;2023-11-19T08:16:20;21.85;;;4.03;;
27491;SDS011;14927;51.210;6.838;2023-11-19T08:19:04;20.75;;;4.00;;
27491;SDS011;14927;51.210;6.838;2023-11-19T08:21:49;22.77;;;4.30;;
27491;SDS011;14927;51.210;6.838;2023-11-19T08:24:34;27.70;;;4.40;;
27491;SDS011;14927;51.210;6.838;2023-11-19T08:27:19;22.20;;;4.55;;
27491;SDS011;14927;51.210;6.838;2023-11-19T08:30:10;22.10;;;3.90;;
27491;SDS011;14927;51.210;6.838;2023-11-19T08:32:55;20.52;;;4.40;;
27491;SDS011;14927;51.210;6.838;2023-11-19T08:39:50;27.77;;;4.82;;
27491;SDS011;14927;51.210;6.838;2023-11-19T08:42:34;26.90;;;4.47;;
27491;SDS011;14927;51.210;6.838;2023-11-19T08:45:23;28.30;;;4.88;;
27491;SDS011;14927;51.210;6.838;2023-11-19T08:48:10;22.90;;;4.93;;
27491;SDS011;14927;51.210;6.838;2023-11-19T08:54:12;27.73;;;4.50;;
27491;SDS011;14927;51.210;6.838;2023-11-19T08:56:57;23.45;;;4.25;;
27491;SDS011;14927;51.210;6.838;2023-11-19T08:59:43;27.15;;;4.47;;
27491;SDS011;14927;51.210;6.838;2023-11-19T09:02:29;20.42;;;3.92;;
27491;SDS011;14927;51.210;6.838;2023-11-19T09:05:15;22.90;;;4.15;;
27491;SDS011;14927;51.210;6.838;2023-11-19T09:08:02;27.77;;;5.55;;
27491;SDS011;14927;51.210;6.838;2023-11-19T09:10:47;23.70;;;4.28;;
27491;SDS011;14927;51.210;6.838;2023-11-19T09:13:32;23.40;;;4.57;;
27491;SDS011;14927;51.210;6.838;2023-11-19T09:16:17;30.10;;;5.25;;
27491;SDS011;14927;51.210;6.838;2023-11-19T09:19:01;25.23;;;4.90;;
27491;SDS011;14927;51.210;6.838;2023-11-19T09:21:46;33.08;;;4.22;;
27491;SDS011;14927;51.210;6.838;2023-11-19T09:24:32;21.42;;;3.97;;
27491;SDS011;14927;51.210;6.838;2023-11-19T09:27:17;27.15;;;5.38;;
27491;SDS011;14927;51.210;6.838;2023-11-19T09:30:01;26.73;;;4.90;;
27491;SDS011;14927;51.210;6.838;2023-11-19T09:32:47;26.10;;;4.60;;
27491;SDS011;14927;51.210;6.838;2023-11-19T09:35:32;30.60;;;5.07;;
27491;SDS011;14927;51.210;6.838;2023-11-19T09:38:16;22.25;;;4.47;;
27491;SDS011;14927;51.210;6.838;2023-11-19T09:41:01;31.27;;;5.15;;
27491;SDS011;14927;51.210;6.838;2023-11-19T09:43:52;25.10;;;5.35;;
27491;SDS011;14927;51.210;6.838;2023-11-19T09:46:37;25.80;;;4.82;;
27491;SDS011;14927;51.210;6.838;2023-11-19T09:49:24;30.83;;;5.25;;
27491;SDS011;14927;51.210;6.838;2023-11-19T09:52:11;23.77;;;5.40;;
27491;SDS011;14927;51.210;6.838;2023-11-19T09:54:56;31.27;;;5.43;;
27491;SDS011;14927;51.210;6.838;2023-11-19T09:57:41;28.15;;;5.32;;
27491;SDS011;14927;51.210;6.838;2023-11-19T10:00:27;30.73;;;5.20;;
27491;SDS011;14927;51.210;6.838;2023-11-19T10:03:12;27.48;;;5.10;;
27491;SDS011;14927;51.210;6.838;2023-11-19T10:05:56;21.15;;;4.50;;
27491;SDS011;14927;51.210;6.838;2023-11-19T10:08:41;25.35;;;5.93;;
27491;SDS011;14927;51.210;6.838;2023-11-19T10:11:28;23.58;;;4.63;;
27491;SDS011;14927;51.210;6.838;2023-11-19T10:14:13;25.83;;;4.65;;
27491;SDS011;14927;51.210;6.838;2023-11-19T10:16:58;27.20;;;5.18;;
27491;SDS011;14927;51.210;6.838;2023-11-19T10:19:47;31.88;;;5.93;;
27491;SDS011;14927;51.210;6.838;2023-11-19T10:22:32;26.02;;;4.03;;
27491;SDS011;14927;51.210;6.838;2023-11-19T10:25:22;22.25;;;4.68;;
27491;SDS011;14927;51.210;6.838;2023-11-19T10:28:11;30.15;;;5.53;;
27491;SDS011;14927;51.210;6.838;2023-11-19T10:31:00;31.02;;;5.25;;
27491;SDS011;14927;51.210;6.838;2023-11-19T10:33:49;25.90;;;4.28;;
27491;SDS011;14927;51.210;6.838;2023-11-19T10:36:37;27.42;;;4.75;;
27491;SDS011;14927;51.210;6.838;2023-11-19T10:39:29;22.05;;;4.55;;
27491;SDS011;14927;51.210;6.838;2023-11-19T10:42:45;23.30;;;4.78;;
27491;SDS011;14927;51.210;6.838;2023-11-19T10:45:33;21.17;;;4.32;;
27491;SDS011;14927;51.210;6.838;2023-11-19T10:48:21;25.48;;;4.90;;
27491;SDS011;14927;51.210;6.838;2023-11-19T10:51:07;22.50;;;4.57;;
27491;SDS011;14927;51.210;6.838;2023-11-19T10:53:56;22.60;;;4.13;;
27491;SDS011;14927;51.210;6.838;2023-11-19T10:56:54;22.30;;;4.20;;
27491;SDS011;14927;51.210;6.838;2023-11-19T10:59:42;30.33;;;5.03;;
27491;SDS011;14927;51.210;6.838;2023-11-19T11:02:30;23.30;;;4.57;;
27491;SDS011;14927;51.210;6.838;2023-11-19T11:05:19;21.50;;;4.10;;
27491;SDS011;14927;51.210;6.838;2023-11-19T11:08:06;21.50;;;4.70;;
27491;SDS011;14927;51.210;6.838;2023-11-19T11:10:55;24.90;;;5.05;;
27491;SDS011;14927;51.210;6.838;2023-11-19T11:13:42;25.30;;;4.75;;
27491;SDS011;14927;51.210;6.838;2023-11-19T11:16:27;20.52;;;4.20;;
27491;SDS011;14927;51.210;6.838;2023-11-19T11:19:13;23.25;;;4.00;;
27491;SDS011;14927;51.210;6.838;2023-11-19T11:22:00;24.08;;;5.03;;
27491;SDS011;14927;51.210;6.838;2023-11-19T11:24:54;22.42;;;4.60;;
27491;SDS011;14927;51.210;6.838;2023-11-19T11:28:18;30.65;;;4.03;;
27491;SDS011;14927;51.210;6.838;2023-11-19T11:31:24;19.83;;;4.05;;
27491;SDS011;14927;51.210;6.838;2023-11-19T11:38:10;22.88;;;3.97;;
27491;SDS011;14927;51.210;6.838;2023-11-19T11:44:06;21.95;;;4.00;;
27491;SDS011;14927;51.210;6.838;2023-11-19T11:46:55;23.60;;;4.55;;
27491;SDS011;14927;51.210;6.838;2023-11-19T11:49:40;18.98;;;3.97;;
27491;SDS011;14927;51.210;6.838;2023-11-19T11:52:25;19.52;;;4.15;;
27491;SDS011;14927;51.210;6.838;2023-11-19T11:55:10;17.88;;;3.83;;
27491;SDS011;14927;51.210;6.838;2023-11-19T11:57:55;15.90;;;3.33;;
27491;SDS011;14927;51.210;6.838;2023-11-19T12:00:40;22.38;;;4.70;;
27491;SDS011;14927;51.210;6.838;2023-11-19T12:03:27;20.45;;;3.83;;
27491;SDS011;14927;51.210;6.838;2023-11-19T12:06:15;18.10;;;3.40;;
27491;SDS011;14927;51.210;6.838;2023-11-19T12:09:00;18.02;;;3.60;;
27491;SDS011;14927;51.210;6.838;2023-11-19T12:11:47;16.95;;;3.63;;
27491;SDS011;14927;51.210;6.838;2023-11-19T12:17:43;19.00;;;3.95;;
27491;SDS011;14927;51.210;6.838;2023-11-19T12:20:34;17.83;;;3.88;;
27491;SDS011;14927;51.210;6.838;2023-11-19T12:23:21;17.80;;;2.85;;
27491;SDS011;14927;51.210;6.838;2023-11-19T12:26:07;14.93;;;3.92;;
27491;SDS011;14927;51.210;6.838;2023-11-19T12:28:58;20.20;;;3.80;;
27491;SDS011;14927;51.210;6.838;2023-11-19T12:31:44;15.60;;;3.55;;
27491;SDS011;14927;51.210;6.838;2023-11-19T12:34:29;15.45;;;3.75;;
27491;SDS011;14927;51.210;6.838;2023-11-19T12:37:13;15.20;;;3.60;;
27491;SDS011;14927;51.210;6.838;2023-11-19T12:39:59;17.17;;;2.83;;
27491;SDS011;14927;51.210;6.838;2023-11-19T12:42:44;17.08;;;3.47;;
27491;SDS011;14927;51.210;6.838;2023-11-19T12:45:36;19.15;;;3.33;;
27491;SDS011;14927;51.210;6.838;2023-11-19T12:48:23;23.35;;;4.25;;
27491;SDS011;14927;51.210;6.838;2023-11-19T12:51:08;16.58;;;3.40;;
27491;SDS011;14927;51.210;6.838;2023-11-19T12:53:52;17.80;;;3.35;;
27491;SDS011;14927;51.210;6.838;2023-11-19T12:56:51;15.07;;;3.58;;
27491;SDS011;14927;51.210;6.838;2023-11-19T12:59:38;20.05;;;3.42;;
27491;SDS011;14927;51.210;6.838;2023-11-19T13:02:23;12.15;;;2.90;;
27491;SDS011;14927;51.210;6.838;2023-11-19T13:05:38;13.68;;;3.03;;
27491;SDS011;14927;51.210;6.838;2023-11-19T13:08:23;14.73;;;3.65;;
27491;SDS011;14927;51.210;6.838;2023-11-19T13:11:08;12.68;;;3.10;;
27491;SDS011;14927;51.210;6.838;2023-11-19T13:13:54;15.73;;;2.92;;
27491;SDS011;14927;51.210;6.838;2023-11-19T13:16:43;18.02;;;3.67;;
27491;SDS011;14927;51.210;6.838;2023-11-19T13:19:30;17.40;;;4.13;;
27491;SDS011;14927;51.210;6.838;2023-11-19T13:22:14;16.27;;;2.83;;
27491;SDS011;14927;51.210;6.838;2023-11-19T13:24:59;17.23;;;3.40;;
27491;SDS011;14927;51.210;6.838;2023-11-19T13:27:45;16.75;;;3.10;;
27491;SDS011;14927;51.210;6.838;2023-11-19T13:30:30;14.27;;;3.20;;
27491;SDS011;14927;51.210;6.838;2023-11-19T13:33:15;10.30;;;2.20;;
27491;SDS011;14927;51.210;6.838;2023-11-19T13:36:00;18.02;;;3.13;;
27491;SDS011;14927;51.210;6.838;2023-11-19T13:38:49;15.88;;;3.45;;
27491;SDS011;14927;51.210;6.838;2023-11-19T13:41:34;17.10;;;3.70;;
27491;SDS011;14927;51.210;6.838;2023-11-19T13:44:18;11.32;;;2.72;;
27491;SDS011;14927;51.210;6.838;2023-11-19T13:47:05;16.00;;;3.42;;
27491;SDS011;14927;51.210;6.838;2023-11-19T13:49:50;16.25;;;3.00;;
27491;SDS011;14927;51.210;6.838;2023-11-19T13:52:36;17.58;;;3.95;;
27491;SDS011;14927;51.210;6.838;2023-11-19T13:55:22;15.57;;;3.10;;
27491;SDS011;14927;51.210;6.838;2023-11-19T13:58:07;19.63;;;4.28;;
27491;SDS011;14927;51.210;6.838;2023-11-19T14:00:51;16.10;;;3.38;;
27491;SDS011;14927;51.210;6.838;2023-11-19T14:03:37;15.90;;;3.72;;
27491;SDS011;14927;51.210;6.838;2023-11-19T14:06:21;17.08;;;3.50;;
27491;SDS011;14927;51.210;6.838;2023-11-19T14:09:06;16.85;;;3.28;;
27491;SDS011;14927;51.210;6.838;2023-11-19T14:11:51;21.70;;;4.07;;
27491;SDS011;14927;51.210;6.838;2023-11-19T14:14:37;16.30;;;4.20;;
27491;SDS011;14927;51.210;6.838;2023-11-19T14:17:23;17.23;;;3.30;;
27491;SDS011;14927;51.210;6.838;2023-11-19T14:20:08;16.05;;;4.03;;
27491;SDS011;14927;51.210;6.838;2023-11-19T14:22:56;18.52;;;3.40;;
27491;SDS011;14927;51.210;6.838;2023-11-19T14:25:41;20.42;;;3.40;;
27491;SDS011;14927;51.210;6.838;2023-11-19T14:28:27;13.77;;;3.15;;
27491;SDS011;14927;51.210;6.838;2023-11-19T14:31:11;16.02;;;3.58;;
27491;SDS011;14927;51.210;6.838;2023-11-19T14:33:56;17.35;;;3.78;;
27491;SDS011;14927;51.210;6.838;2023-11-19T14:36:41;16.40;;;3.88;;
27491;SDS011;14927;51.210;6.838;2023-11-19T14:39:26;18.60;;;3.63;;
27491;SDS011;14927;51.210;6.838;2023-11-19T14:47:28;18.20;;;4.10;;
27491;SDS011;14927;51.210;6.838;2023-11-19T14:50:14;16.17;;;3.78;;
27491;SDS011;14927;51.210;6.838;2023-11-19T14:52:59;18.35;;;3.88;;
27491;SDS011;14927;51.210;6.838;2023-11-19T14:55:43;20.83;;;4.00;;
27491;SDS011;14927;51.210;6.838;2023-11-19T14:58:28;15.30;;;3.80;;
27491;SDS011;14927;51.210;6.838;2023-11-19T15:01:13;12.20;;;3.10;;
27491;SDS011;14927;51.210;6.838;2023-11-19T15:03:57;20.83;;;4.05;;
27491;SDS011;14927;51.210;6.838;2023-11-19T15:06:42;17.63;;;3.80;;
27491;SDS011;14927;51.210;6.838;2023-11-19T15:09:27;19.48;;;3.63;;
27491;SDS011;14927;51.210;6.838;2023-11-19T15:12:11;16.48;;;3.58;;
27491;SDS011;14927;51.210;6.838;2023-11-19T15:14:56;21.85;;;3.60;;
27491;SDS011;14927;51.210;6.838;2023-11-19T15:17:41;15.05;;;2.97;;
27491;SDS011;14927;51.210;6.838;2023-11-19T15:20:26;13.38;;;3.03;;
27491;SDS011;14927;51.210;6.838;2023-11-19T15:23:14;17.83;;;3.50;;
27491;SDS011;14927;51.210;6.838;2023-11-19T15:25:59;20.73;;;3.95;;
27491;SDS011;14927;51.210;6.838;2023-11-19T15:28:44;10.98;;;3.00;;
27491;SDS011;14927;51.210;6.838;2023-11-19T15:31:28;13.35;;;3.30;;
27491;SDS011;14927;51.210;6.838;2023-11-19T15:34:15;21.65;;;4.03;;
27491;SDS011;14927;51.210;6.838;2023-11-19T15:36:59;16.48;;;3.55;;
27491;SDS011;14927;51.210;6.838;2023-11-19T15:39:44;25.77;;;5.68;;
27491;SDS011;14927;51.210;6.838;2023-11-19T15:42:30;20.75;;;4.78;;
27491;SDS011;14927;51.210;6.838;2023-11-19T15:45:15;14.98;;;3.65;;
27491;SDS011;14927;51.210;6.838;2023-11-19T15:48:00;14.98;;;3.83;;
27491;SDS011;14927;51.210;6.838;2023-11-19T15:50:44;15.73;;;4.03;;
27491;SDS011;14927;51.210;6.838;2023-11-19T15:53:29;16.65;;;3.47;;
27491;SDS011;14927;51.210;6.838;2023-11-19T15:56:17;16.23;;;3.72;;
27491;SDS011;14927;51.210;6.838;2023-11-19T15:59:01;18.77;;;3.63;;
27491;SDS011;14927;51.210;6.838;2023-11-19T16:01:48;13.55;;;3.20;;
27491;SDS011;14927;51.210;6.838;2023-11-19T16:04:32;23.35;;;3.63;;
27491;SDS011;14927;51.210;6.838;2023-11-19T16:07:17;22.65;;;3.50;;
27491;SDS011;14927;51.210;6.838;2023-11-19T16:10:03;15.18;;;3.55;;
27491;SDS011;14927;51.210;6.838;2023-11-19T16:12:48;16.60;;;3.80;;
27491;SDS011;14927;51.210;6.838;2023-11-19T16:15:33;25.20;;;3.85;;
27491;SDS011;14927;51.210;6.838;2023-11-19T16:18:18;19.27;;;3.70;;
27491;SDS011;14927;51.210;6.838;2023-11-19T16:21:02;16.05;;;3.58;;
27491;SDS011;14927;51.210;6.838;2023-11-19T16:23:47;19.63;;;3.72;;
27491;SDS011;14927;51.210;6.838;2023-11-19T16:26:32;16.60;;;3.05;;
27491;SDS011;14927;51.210;6.838;2023-11-19T16:29:20;17.38;;;3.22;;
27491;SDS011;14927;51.210;6.838;2023-11-19T16:32:04;19.55;;;2.90;;
27491;SDS011;14927;51.210;6.838;2023-11-19T16:34:50;25.20;;;6.10;;
27491;SDS011;14927;51.210;6.838;2023-11-19T16:37:34;21.85;;;4.03;;
27491;SDS011;14927;51.210;6.838;2023-11-19T16:40:19;19.05;;;3.03;;
27491;SDS011;14927;51.210;6.838;2023-11-19T16:43:05;18.00;;;4.10;;
27491;SDS011;14927;51.210;6.838;2023-11-19T16:45:49;20.10;;;3.97;;
27491;SDS011;14927;51.210;6.838;2023-11-19T16:48:34;18.23;;;3.78;;
27491;SDS011;14927;51.210;6.838;2023-11-19T16:51:19;20.50;;;4.25;;
27491;SDS011;14927;51.210;6.838;2023-11-19T16:54:03;24.05;;;4.40;;